createdAt,value
2018-01-24T00:00:57.239Z,63.40
2018-01-24T00:01:58.336Z,63.60
2018-01-24T00:02:59.433Z,63.70
2018-01-24T00:04:00.530Z,63.80
2018-01-24T00:05:01.615Z,63.70
2018-01-24T00:06:02.795Z,63.70
2018-01-24T00:07:03.895Z,63.70
2018-01-24T00:08:04.986Z,64.80
2018-01-24T00:09:06.103Z,64.10
2018-01-24T00:10:07.203Z,64.20
2018-01-24T00:11:08.315Z,64.20
2018-01-24T00:12:09.451Z,64.40
2018-01-24T00:13:10.556Z,64.10
2018-01-24T00:14:11.655Z,64.10
2018-01-24T00:15:12.832Z,64.10
2018-01-24T00:16:14.679Z,64.10
2018-01-24T00:17:15.819Z,64.00
2018-01-24T00:18:16.923Z,64.10
2018-01-24T00:19:18.050Z,64.90
2018-01-24T00:20:19.162Z,64.30
2018-01-24T00:21:20.245Z,64.30
2018-01-24T00:22:21.313Z,64.30
2018-01-24T00:23:22.381Z,64.30
2018-01-24T00:24:23.457Z,64.30
2018-01-24T00:25:25.267Z,64.40
2018-01-24T00:26:26.343Z,64.40
2018-01-24T00:27:27.431Z,64.20
2018-01-24T00:28:28.490Z,64.30
2018-01-24T00:29:29.599Z,63.40
2018-01-24T00:30:30.672Z,63.30
2018-01-24T00:31:31.731Z,63.20
2018-01-24T00:32:32.790Z,63.10
2018-01-24T00:33:33.851Z,64.00
2018-01-24T00:34:34.934Z,62.90
2018-01-24T00:35:36.016Z,63.20
2018-01-24T00:36:37.087Z,63.20
2018-01-24T00:37:38.167Z,63.10
2018-01-24T00:38:39.222Z,63.00
2018-01-24T00:39:40.295Z,62.80
2018-01-24T00:40:42.099Z,62.80
2018-01-24T00:41:43.148Z,62.80
2018-01-24T00:42:44.209Z,62.70
2018-01-24T00:43:45.313Z,62.90
2018-01-24T00:44:47.127Z,62.80
2018-01-24T00:45:48.188Z,62.80
2018-01-24T00:46:49.259Z,63.60
2018-01-24T00:47:50.386Z,63.00
2018-01-24T00:48:52.183Z,63.70
2018-01-24T00:49:53.390Z,62.90
2018-01-24T00:50:54.463Z,62.80
2018-01-24T00:51:56.303Z,62.40
2018-01-24T00:52:58.148Z,62.40
2018-01-24T00:54:00.005Z,62.40
2018-01-24T00:55:01.091Z,62.50
2018-01-24T00:56:02.191Z,62.50
2018-01-24T00:57:03.998Z,62.90
2018-01-24T00:58:05.048Z,62.90
2018-01-24T00:59:06.122Z,62.60
2018-01-24T01:00:07.195Z,62.60
2018-01-24T01:01:08.267Z,62.70
2018-01-24T01:02:09.347Z,62.60
2018-01-24T01:03:10.414Z,62.70
2018-01-24T01:04:11.478Z,62.50
2018-01-24T01:05:12.568Z,62.50
2018-01-24T01:06:13.651Z,63.10
2018-01-24T01:07:14.732Z,62.40
2018-01-24T01:08:15.817Z,62.70
2018-01-24T01:09:16.908Z,62.20
2018-01-24T01:10:18.036Z,62.30
2018-01-24T01:11:19.106Z,62.30
2018-01-24T01:12:20.194Z,62.30
2018-01-24T01:13:21.286Z,62.30
2018-01-24T01:14:22.346Z,62.60
2018-01-24T01:15:23.451Z,62.20
2018-01-24T01:16:24.546Z,62.30
2018-01-24T01:17:25.638Z,62.40
2018-01-24T01:18:27.444Z,62.60
2018-01-24T01:19:28.872Z,62.70
2018-01-24T01:20:30.675Z,62.60
2018-01-24T01:21:31.746Z,62.50
2018-01-24T01:22:33.563Z,62.90
2018-01-24T01:23:34.672Z,62.80
2018-01-24T01:24:35.759Z,62.90
2018-01-24T01:25:37.580Z,63.10
2018-01-24T01:26:38.646Z,63.00
2018-01-24T01:27:39.748Z,63.10
2018-01-24T01:28:40.835Z,63.20
2018-01-24T01:29:42.658Z,63.20
2018-01-24T01:30:44.519Z,63.30
2018-01-24T01:31:45.675Z,63.30
2018-01-24T01:32:46.744Z,63.00
2018-01-24T01:33:47.831Z,63.20
2018-01-24T01:34:48.895Z,63.10
2018-01-24T01:35:50.020Z,63.30
2018-01-24T01:36:51.089Z,63.30
2018-01-24T01:37:52.932Z,63.50
2018-01-24T01:38:54.072Z,63.50
2018-01-24T01:39:55.943Z,63.80
2018-01-24T01:40:57.047Z,63.80
2018-01-24T01:41:58.130Z,63.70
2018-01-24T01:42:59.178Z,64.10
2018-01-24T01:44:00.271Z,64.00
2018-01-24T01:45:01.423Z,64.10
2018-01-24T01:46:02.507Z,64.50
2018-01-24T01:47:03.650Z,64.50
2018-01-24T01:48:04.731Z,64.40
2018-01-24T01:49:05.834Z,64.30
2018-01-24T01:50:06.943Z,64.40
2018-01-24T01:51:08.030Z,64.40
2018-01-24T01:52:09.113Z,64.40
2018-01-24T01:53:10.964Z,64.30
2018-01-24T01:54:12.071Z,64.30
2018-01-24T01:55:13.157Z,64.40
2018-01-24T01:56:14.284Z,64.40
2018-01-24T01:57:15.407Z,64.40
2018-01-24T01:58:17.236Z,64.50
2018-01-24T01:59:18.319Z,64.50
2018-01-24T02:00:19.395Z,64.50
2018-01-24T02:01:20.487Z,64.40
2018-01-24T02:02:22.303Z,64.40
2018-01-24T02:03:24.135Z,64.50
2018-01-24T02:04:25.222Z,65.30
2018-01-24T02:05:26.342Z,64.50
2018-01-24T02:06:27.421Z,64.60
2018-01-24T02:07:28.531Z,64.50
2018-01-24T02:08:29.587Z,64.60
2018-01-24T02:09:30.706Z,64.60
2018-01-24T02:10:31.803Z,64.60
2018-01-24T02:11:32.901Z,64.70
2018-01-24T02:12:34.710Z,64.70
2018-01-24T02:13:35.777Z,64.70
2018-01-24T02:14:36.849Z,64.80
2018-01-24T02:15:37.932Z,64.70
2018-01-24T02:16:39.023Z,64.70
2018-01-24T02:17:40.095Z,64.90
2018-01-24T02:18:41.177Z,65.00
2018-01-24T02:19:42.277Z,65.20
2018-01-24T02:20:43.355Z,65.40
2018-01-24T02:21:44.423Z,65.50
2018-01-24T02:22:45.505Z,65.50
2018-01-24T02:23:46.606Z,65.20
2018-01-24T02:24:47.709Z,65.50
2018-01-24T02:25:48.800Z,65.70
2018-01-24T02:26:49.876Z,65.50
2018-01-24T02:27:51.688Z,65.70
2018-01-24T02:28:52.775Z,65.70
2018-01-24T02:29:53.866Z,65.70
2018-01-24T02:30:54.928Z,65.20
2018-01-24T02:31:56.043Z,65.00
2018-01-24T02:32:57.151Z,65.00
2018-01-24T02:33:58.232Z,65.20
2018-01-24T02:34:59.311Z,65.30
2018-01-24T02:36:00.379Z,65.10
2018-01-24T02:37:01.475Z,65.10
2018-01-24T02:38:02.538Z,65.10
2018-01-24T02:39:14.812Z,64.90
2018-01-24T02:40:15.891Z,64.80
2018-01-24T02:41:16.959Z,64.80
2018-01-24T02:42:18.024Z,64.90
2018-01-24T02:43:19.127Z,65.00
2018-01-24T02:44:20.204Z,65.20
2018-01-24T02:45:21.275Z,65.20
2018-01-24T02:46:22.411Z,65.40
2018-01-24T02:47:23.495Z,65.30
2018-01-24T02:48:24.570Z,65.10
2018-01-24T02:49:25.752Z,65.00
2018-01-24T02:50:26.850Z,65.10
2018-01-24T02:51:27.961Z,65.10
2018-01-24T02:52:29.807Z,65.40
2018-01-24T02:53:30.874Z,65.40
2018-01-24T02:54:32.760Z,65.30
2018-01-24T02:55:33.847Z,65.40
2018-01-24T02:56:34.916Z,65.50
2018-01-24T02:57:35.996Z,65.60
2018-01-24T02:58:37.059Z,65.80
2018-01-24T02:59:38.118Z,65.90
2018-01-24T03:00:39.211Z,66.20
2018-01-24T03:01:40.289Z,66.20
2018-01-24T03:02:41.360Z,66.30
2018-01-24T03:03:42.443Z,66.30
2018-01-24T03:04:43.572Z,66.40
2018-01-24T03:05:44.656Z,66.60
2018-01-24T03:06:45.723Z,66.60
2018-01-24T03:07:46.783Z,66.70
2018-01-24T03:08:47.863Z,66.60
2018-01-24T03:09:48.988Z,66.70
2018-01-24T03:10:50.072Z,66.80
2018-01-24T03:11:51.155Z,67.20
2018-01-24T03:12:52.969Z,66.70
2018-01-24T03:13:54.048Z,66.80
2018-01-24T03:14:55.104Z,66.90
2018-01-24T03:15:56.199Z,66.80
2018-01-24T03:16:58.016Z,67.10
2018-01-24T03:17:59.095Z,67.00
2018-01-24T03:19:00.159Z,67.20
2018-01-24T03:20:01.214Z,67.20
2018-01-24T03:21:02.291Z,67.20
2018-01-24T03:22:03.431Z,67.20
2018-01-24T03:23:04.499Z,67.20
2018-01-24T03:24:05.573Z,67.40
2018-01-24T03:25:06.699Z,67.60
2018-01-24T03:26:07.847Z,67.60
2018-01-24T03:27:08.962Z,67.70
2018-01-24T03:28:10.791Z,67.70
2018-01-24T03:29:11.891Z,67.70
2018-01-24T03:30:12.972Z,67.60
2018-01-24T03:31:14.043Z,67.50
2018-01-24T03:32:15.104Z,67.50
2018-01-24T03:33:16.188Z,67.40
2018-01-24T03:34:17.254Z,67.50
2018-01-24T03:35:18.336Z,67.20
2018-01-24T03:36:19.405Z,67.20
2018-01-24T03:37:20.487Z,67.20
2018-01-24T03:38:21.575Z,67.20
2018-01-24T03:39:22.690Z,67.00
2018-01-24T03:40:23.755Z,67.10
2018-01-24T03:41:24.856Z,67.30
2018-01-24T03:42:25.959Z,67.40
2018-01-24T03:43:27.775Z,67.00
2018-01-24T03:44:28.851Z,67.40
2018-01-24T03:45:30.694Z,67.50
2018-01-24T03:46:31.746Z,67.50
2018-01-24T03:47:32.851Z,67.80
2018-01-24T03:48:34.678Z,67.90
2018-01-24T03:49:35.775Z,67.90
2018-01-24T03:50:36.847Z,68.10
2018-01-24T03:51:37.923Z,68.10
2018-01-24T03:52:38.995Z,68.10
2018-01-24T03:53:40.078Z,68.30
2018-01-24T03:54:41.911Z,68.40
2018-01-24T03:55:43.027Z,68.40
2018-01-24T03:56:44.094Z,68.70
2018-01-24T03:57:45.144Z,68.80
2018-01-24T03:58:46.232Z,68.90
2018-01-24T03:59:47.305Z,68.90
2018-01-24T04:00:48.403Z,69.10
2018-01-24T04:01:49.506Z,69.00
2018-01-24T04:02:50.578Z,69.10
2018-01-24T04:03:51.739Z,69.00
2018-01-24T04:04:52.798Z,69.20
2018-01-24T04:05:53.891Z,69.20
2018-01-24T04:06:55.707Z,69.20
2018-01-24T04:07:56.790Z,69.20
2018-01-24T04:08:57.867Z,69.20
2018-01-24T04:09:58.955Z,69.30
2018-01-24T04:11:00.026Z,69.30
2018-01-24T04:12:01.115Z,69.10
2018-01-24T04:13:02.211Z,69.10
2018-01-24T04:14:03.275Z,69.10
2018-01-24T04:15:05.071Z,69.00
2018-01-24T04:16:06.163Z,69.00
2018-01-24T04:17:07.285Z,68.60
2018-01-24T04:18:08.347Z,68.60
2018-01-24T04:19:09.416Z,68.60
2018-01-24T04:20:10.482Z,68.50
2018-01-24T04:21:11.588Z,68.50
2018-01-24T04:22:12.652Z,68.40
2018-01-24T04:23:13.718Z,68.40
2018-01-24T04:24:14.816Z,68.30
2018-01-24T04:25:15.901Z,68.30
2018-01-24T04:26:16.980Z,68.20
2018-01-24T04:27:18.067Z,68.30
2018-01-24T04:28:19.138Z,68.30
2018-01-24T04:29:20.244Z,68.50
2018-01-24T04:30:21.314Z,68.50
2018-01-24T04:31:22.391Z,68.40
2018-01-24T04:32:23.458Z,68.70
2018-01-24T04:33:24.507Z,68.70
2018-01-24T04:34:26.299Z,68.80
2018-01-24T04:35:27.376Z,68.70
2018-01-24T04:36:28.494Z,68.70
2018-01-24T04:37:30.330Z,68.80
2018-01-24T04:38:31.384Z,68.70
2018-01-24T04:39:33.216Z,69.50
2018-01-24T04:40:34.311Z,68.70
2018-01-24T04:41:35.399Z,68.60
2018-01-24T04:42:37.213Z,68.50
2018-01-24T04:43:38.272Z,68.50
2018-01-24T04:44:40.099Z,68.40
2018-01-24T04:45:41.182Z,68.30
2018-01-24T04:46:42.263Z,68.30
2018-01-24T04:47:43.503Z,68.20
2018-01-24T04:48:44.618Z,68.20
2018-01-24T04:49:45.710Z,68.30
2018-01-24T04:50:47.555Z,68.30
2018-01-24T04:51:48.655Z,68.30
2018-01-24T04:52:49.740Z,68.10
2018-01-24T04:53:50.834Z,67.90
2018-01-24T04:54:51.911Z,67.80
2018-01-24T04:55:53.747Z,67.60
2018-01-24T04:56:54.856Z,67.60
2018-01-24T04:57:56.670Z,67.80
2018-01-24T04:58:57.747Z,67.70
2018-01-24T04:59:59.601Z,68.00
2018-01-24T05:01:00.734Z,67.90
2018-01-24T05:02:01.839Z,68.00
2018-01-24T05:03:03.667Z,68.20
2018-01-24T05:04:04.744Z,68.20
2018-01-24T05:05:05.822Z,68.20
2018-01-24T05:06:06.923Z,68.30
2018-01-24T05:07:08.030Z,68.30
2018-01-24T05:08:09.102Z,68.40
2018-01-24T05:09:10.215Z,68.40
2018-01-24T05:10:11.303Z,68.70
2018-01-24T05:11:12.408Z,68.70
2018-01-24T05:12:13.595Z,68.70
2018-01-24T05:13:15.446Z,68.90
2018-01-24T05:14:17.315Z,69.10
2018-01-24T05:15:18.419Z,69.10
2018-01-24T05:16:19.514Z,69.10
2018-01-24T05:17:20.612Z,69.00
2018-01-24T05:18:22.524Z,69.10
2018-01-24T05:19:23.631Z,69.90
2018-01-24T05:20:26.491Z,69.10
2018-01-24T05:21:27.639Z,69.10
2018-01-24T05:22:28.788Z,69.10
2018-01-24T05:23:29.994Z,69.10
2018-01-24T05:24:31.122Z,69.10
2018-01-24T05:25:32.198Z,69.00
2018-01-24T05:26:33.311Z,69.00
2018-01-24T05:27:34.380Z,69.90
2018-01-24T05:28:35.462Z,68.90
2018-01-24T05:29:37.291Z,69.00
2018-01-24T05:30:38.369Z,69.10
2018-01-24T05:31:39.460Z,69.00
2018-01-24T05:32:40.526Z,69.00
2018-01-24T05:33:41.603Z,69.00
2018-01-24T05:34:42.733Z,69.10
2018-01-24T05:35:44.538Z,69.10
2018-01-24T05:36:45.615Z,69.10
2018-01-24T05:37:46.695Z,69.10
2018-01-24T05:38:47.812Z,69.10
2018-01-24T05:39:48.917Z,69.30
2018-01-24T05:40:50.719Z,69.50
2018-01-24T05:41:51.778Z,69.50
2018-01-24T05:42:52.861Z,69.40
2018-01-24T05:43:53.927Z,69.30
2018-01-24T05:44:55.011Z,69.50
2018-01-24T05:45:56.080Z,69.40
2018-01-24T05:46:57.146Z,69.40
2018-01-24T05:47:58.239Z,69.40
2018-01-24T05:48:59.283Z,70.60
2018-01-24T05:50:00.342Z,70.80
2018-01-24T05:51:01.435Z,70.90
2018-01-24T05:52:02.553Z,71.00
2018-01-24T05:53:03.628Z,71.10
2018-01-24T05:54:04.695Z,71.10
2018-01-24T05:55:05.772Z,71.10
2018-01-24T05:56:06.865Z,71.20
2018-01-24T05:57:07.936Z,71.40
2018-01-24T05:58:09.022Z,71.50
2018-01-24T05:59:10.845Z,72.00
2018-01-24T06:00:11.939Z,72.00
2018-01-24T06:01:13.015Z,72.00
2018-01-24T06:02:14.819Z,71.70
2018-01-24T06:03:15.891Z,71.70
2018-01-24T06:04:16.972Z,72.00
2018-01-24T06:05:18.070Z,72.00
2018-01-24T06:06:19.870Z,72.00
2018-01-24T06:07:20.946Z,72.00
2018-01-24T06:08:22.079Z,72.00
2018-01-24T06:09:23.914Z,72.00
2018-01-24T06:10:25.004Z,72.00
2018-01-24T06:11:26.169Z,72.00
2018-01-24T06:12:27.354Z,72.00
2018-01-24T06:13:28.535Z,71.90
2018-01-24T06:14:29.728Z,71.90
2018-01-24T06:15:30.795Z,71.60
2018-01-24T06:16:31.923Z,71.60
2018-01-24T06:17:32.982Z,71.50
2018-01-24T06:18:34.055Z,71.40
2018-01-24T06:19:35.115Z,71.40
2018-01-24T06:20:36.172Z,71.20
2018-01-24T06:21:37.248Z,71.20
2018-01-24T06:22:38.326Z,71.30
2018-01-24T06:23:39.412Z,71.20
2018-01-24T06:24:40.474Z,71.10
2018-01-24T06:25:41.542Z,71.00
2018-01-24T06:26:42.616Z,71.00
2018-01-24T06:27:43.686Z,70.80
2018-01-24T06:28:44.793Z,69.70
2018-01-24T06:29:45.925Z,69.70
2018-01-24T06:30:46.963Z,70.80
2018-01-24T06:31:48.046Z,71.50
2018-01-24T06:32:50.206Z,70.60
2018-01-24T06:33:51.595Z,69.70
2018-01-24T06:34:52.867Z,69.60
2018-01-24T06:35:54.884Z,70.60
2018-01-24T06:36:56.832Z,69.50
2018-01-24T06:39:03.756Z,69.50
2018-01-24T06:40:05.576Z,69.30
2018-01-24T06:41:06.668Z,69.30
2018-01-24T06:42:07.731Z,69.20
2018-01-24T06:43:08.790Z,69.10
2018-01-24T06:44:09.903Z,69.00
2018-01-24T06:45:10.999Z,69.10
2018-01-24T06:46:12.058Z,68.90
2018-01-24T06:47:13.175Z,69.00
2018-01-24T06:48:14.991Z,69.10
2018-01-24T06:49:16.811Z,69.20
2018-01-24T06:50:17.875Z,69.10
2018-01-24T06:51:19.728Z,69.10
2018-01-24T06:52:20.810Z,68.90
2018-01-24T06:53:21.891Z,68.90
2018-01-24T06:54:23.718Z,69.00
2018-01-24T06:55:24.787Z,69.00
2018-01-24T06:56:25.850Z,68.90
2018-01-24T06:57:27.027Z,69.10
2018-01-24T06:58:28.124Z,69.20
2018-01-24T06:59:29.199Z,71.20
2018-01-24T07:00:30.273Z,70.50
2018-01-24T07:01:31.343Z,70.60
2018-01-24T07:02:32.402Z,70.60
2018-01-24T07:03:33.510Z,70.70
2018-01-24T07:04:34.587Z,70.50
2018-01-24T07:05:35.679Z,70.40
2018-01-24T07:06:36.767Z,70.40
2018-01-24T07:07:37.838Z,70.50
2018-01-24T07:08:38.913Z,70.50
2018-01-24T07:09:40.008Z,70.50
2018-01-24T07:10:41.090Z,70.50
2018-01-24T07:11:42.182Z,70.40
2018-01-24T07:14:26.183Z,70.10
2018-01-24T07:15:27.250Z,70.20
2018-01-24T07:16:28.352Z,70.50
2018-01-24T07:17:29.434Z,70.70
2018-01-24T07:18:31.269Z,70.60
2018-01-24T07:19:32.362Z,70.60
2018-01-24T07:20:33.431Z,70.70
2018-01-24T07:21:34.563Z,71.00
2018-01-24T07:22:35.669Z,71.20
2018-01-24T07:23:36.699Z,71.20
2018-01-24T07:24:37.791Z,71.30
2018-01-24T07:25:38.855Z,71.40
2018-01-24T07:26:39.898Z,71.40
2018-01-24T07:27:40.972Z,71.40
2018-01-24T07:28:42.762Z,71.90
2018-01-24T07:29:43.822Z,71.90
2018-01-24T07:30:44.889Z,71.90
2018-01-24T07:31:45.947Z,71.90
2018-01-24T07:32:47.026Z,71.90
2018-01-24T07:33:48.091Z,71.80
2018-01-24T07:34:49.175Z,71.80
2018-01-24T07:35:50.250Z,71.80
2018-01-24T07:36:52.070Z,71.70
2018-01-24T07:37:53.132Z,71.70
2018-01-24T07:38:54.197Z,71.90
2018-01-24T07:39:55.284Z,72.10
2018-01-24T07:40:56.451Z,72.50
2018-01-24T07:41:58.219Z,72.80
2018-01-24T07:42:59.295Z,72.80
2018-01-24T07:44:01.225Z,72.80
2018-01-24T07:45:02.303Z,72.90
2018-01-24T07:46:03.387Z,73.00
2018-01-24T07:47:04.449Z,73.20
2018-01-24T07:48:05.526Z,73.30
2018-01-24T07:49:06.582Z,73.30
2018-01-24T07:50:07.658Z,73.30
2018-01-24T07:51:09.455Z,73.40
2018-01-24T07:52:10.523Z,73.50
2018-01-24T07:53:12.410Z,73.60
2018-01-24T07:54:13.519Z,73.60
2018-01-24T07:55:14.598Z,73.70
2018-01-24T07:56:15.669Z,73.70
2018-01-24T07:57:16.754Z,73.70
2018-01-24T07:58:17.815Z,73.90
2018-01-24T07:59:18.983Z,73.90
2018-01-24T08:00:20.807Z,74.10
2018-01-24T08:01:21.903Z,74.10
2018-01-24T08:02:23.003Z,74.10
2018-01-24T08:03:24.299Z,74.80
2018-01-24T08:04:25.377Z,74.90
2018-01-24T08:05:26.463Z,74.30
2018-01-24T08:06:27.513Z,74.40
2018-01-24T08:07:28.569Z,74.40
2018-01-24T08:08:29.650Z,74.50
2018-01-24T08:09:30.734Z,74.50
2018-01-24T08:10:31.823Z,74.60
2018-01-24T08:11:32.908Z,74.50
2018-01-24T08:12:33.994Z,74.50
2018-01-24T08:13:35.070Z,74.50
2018-01-24T08:14:36.126Z,74.30
2018-01-24T08:15:37.205Z,74.30
2018-01-24T08:16:38.250Z,74.10
2018-01-24T08:17:40.040Z,74.00
2018-01-24T08:18:41.096Z,74.00
2018-01-24T08:19:42.159Z,73.90
2018-01-24T08:20:43.247Z,73.90
2018-01-24T08:21:44.321Z,73.80
2018-01-24T08:22:45.412Z,73.90
2018-01-24T08:23:46.490Z,73.80
2018-01-24T08:24:47.579Z,73.70
2018-01-24T08:25:48.682Z,73.70
2018-01-24T08:26:49.758Z,73.60
2018-01-24T08:27:50.819Z,73.40
2018-01-24T08:28:51.911Z,73.30
2018-01-24T08:29:52.974Z,73.10
2018-01-24T08:30:54.814Z,73.10
2018-01-24T08:31:55.899Z,73.00
2018-01-24T08:32:57.008Z,72.80
2018-01-24T08:33:58.105Z,73.50
2018-01-24T08:34:59.215Z,72.90
2018-01-24T08:36:00.287Z,72.60
2018-01-24T08:37:01.354Z,72.70
2018-01-24T08:38:02.404Z,72.70
2018-01-24T08:39:03.475Z,72.60
2018-01-24T08:40:05.333Z,72.60
2018-01-24T08:41:06.448Z,72.60
2018-01-24T08:42:07.558Z,72.80
2018-01-24T08:43:08.659Z,72.80
2018-01-24T08:44:09.734Z,72.70
2018-01-24T08:45:10.824Z,72.50
2018-01-24T08:46:11.898Z,72.70
2018-01-24T08:47:12.986Z,72.50
2018-01-24T08:48:14.063Z,72.60
2018-01-24T08:49:15.131Z,72.50
2018-01-24T08:50:16.933Z,72.50
2018-01-24T08:51:18.017Z,72.50
2018-01-24T08:52:19.102Z,72.60
2018-01-24T08:53:20.171Z,72.60
2018-01-24T08:54:21.987Z,72.60
2018-01-24T08:55:23.053Z,72.60
2018-01-24T08:56:24.865Z,72.40
2018-01-24T08:57:25.936Z,72.40
2018-01-24T08:58:27.035Z,72.20
2018-01-24T08:59:28.382Z,72.30
2018-01-24T09:00:48.035Z,72.10
2018-01-24T09:02:13.686Z,72.20
2018-01-24T09:03:39.479Z,72.10
2018-01-24T09:05:05.173Z,72.00
2018-01-24T09:06:30.921Z,72.10
2018-01-24T09:07:56.615Z,72.10
2018-01-24T09:09:22.324Z,71.20
2018-01-24T09:10:48.006Z,71.20
2018-01-24T09:12:13.678Z,71.20
2018-01-24T09:13:39.367Z,72.40
2018-01-24T09:15:05.146Z,72.60
2018-01-24T09:16:30.863Z,72.50
2018-01-24T09:17:56.647Z,72.60
2018-01-24T09:19:22.314Z,72.60
2018-01-24T09:20:48.095Z,72.40
2018-01-24T09:22:13.943Z,72.50
2018-01-24T09:23:37.265Z,72.50
2018-01-24T09:24:57.740Z,71.50
2018-01-24T09:25:58.911Z,71.60
2018-01-24T09:26:59.991Z,71.80
2018-01-24T09:28:01.075Z,71.70
2018-01-24T09:29:02.886Z,71.80
2018-01-24T09:30:03.980Z,71.80
2018-01-24T09:31:05.054Z,71.80
2018-01-24T09:32:06.126Z,71.80
2018-01-24T09:33:07.202Z,72.10
2018-01-24T09:34:08.268Z,71.80
2018-01-24T09:35:09.327Z,71.80
2018-01-24T09:36:10.395Z,71.40
2018-01-24T09:37:11.479Z,71.40
2018-01-24T09:38:12.556Z,71.50
2018-01-24T09:39:13.631Z,71.50
2018-01-24T09:40:15.492Z,71.60
2018-01-24T09:41:17.325Z,71.60
2018-01-24T09:42:18.522Z,71.60
2018-01-24T09:43:19.607Z,71.60
2018-01-24T09:44:21.407Z,71.60
2018-01-24T09:45:22.459Z,71.60
2018-01-24T09:46:23.515Z,71.40
2018-01-24T09:47:25.330Z,71.10
2018-01-24T09:48:26.397Z,71.10
2018-01-24T09:49:27.494Z,71.10
2018-01-24T09:50:28.558Z,71.00
2018-01-24T09:51:30.375Z,70.80
2018-01-24T09:52:31.433Z,70.80
2018-01-24T09:53:32.493Z,71.00
2018-01-24T09:54:33.616Z,70.80
2018-01-24T09:55:34.703Z,70.80
2018-01-24T09:56:36.708Z,70.70
2018-01-24T09:57:37.791Z,70.80
2018-01-24T09:58:38.868Z,70.50
2018-01-24T09:59:40.747Z,70.50
2018-01-24T10:00:41.853Z,70.50
2018-01-24T10:01:42.928Z,70.30
2018-01-24T10:02:44.074Z,70.40
2018-01-24T10:03:45.397Z,70.20
2018-01-24T10:04:46.479Z,70.10
2018-01-24T10:05:47.615Z,70.50
2018-01-24T10:06:48.740Z,70.10
2018-01-24T10:07:49.864Z,70.10
2018-01-24T10:08:50.951Z,69.90
2018-01-24T10:09:52.091Z,69.70
2018-01-24T10:10:53.182Z,70.00
2018-01-24T10:11:54.974Z,69.30
2018-01-24T10:12:56.062Z,69.30
2018-01-24T10:13:57.884Z,69.10
2018-01-24T10:14:58.979Z,69.10
2018-01-24T10:16:00.053Z,68.80
2018-01-24T10:17:01.422Z,68.70
2018-01-24T10:18:02.575Z,68.80
2018-01-24T10:19:04.373Z,68.60
2018-01-24T10:20:05.524Z,68.30
2018-01-24T10:21:06.627Z,68.30
2018-01-24T10:22:07.903Z,68.70
2018-01-24T10:23:11.015Z,68.30
2018-01-24T10:24:12.158Z,68.30
2018-01-24T10:25:13.262Z,68.40
2018-01-24T10:26:14.330Z,68.60
2018-01-24T10:27:15.391Z,68.40
2018-01-24T10:28:16.467Z,68.50
2018-01-24T10:29:17.551Z,68.10
2018-01-24T10:30:18.819Z,67.70
2018-01-24T10:31:19.882Z,68.00
2018-01-24T10:32:20.956Z,67.80
2018-01-24T10:33:22.026Z,67.70
2018-01-24T10:34:23.098Z,67.50
2018-01-24T10:35:24.175Z,67.40
2018-01-24T10:36:25.291Z,67.50
2018-01-24T10:37:26.383Z,67.70
2018-01-24T10:38:27.496Z,67.40
2018-01-24T10:39:28.583Z,67.30
2018-01-24T10:40:29.734Z,67.00
2018-01-24T10:41:31.542Z,67.20
2018-01-24T10:42:32.620Z,67.10
2018-01-24T10:43:34.435Z,67.00
2018-01-24T10:44:35.503Z,67.00
2018-01-24T10:45:37.367Z,67.50
2018-01-24T10:46:38.456Z,67.60
2018-01-24T10:47:39.535Z,67.10
2018-01-24T10:48:40.615Z,67.00
2018-01-24T10:49:41.723Z,66.60
2018-01-24T10:50:42.797Z,66.80
2018-01-24T10:51:43.879Z,66.90
2018-01-24T10:52:45.007Z,67.10
2018-01-24T10:53:46.092Z,67.00
2018-01-24T10:54:47.175Z,66.60
2018-01-24T10:55:48.255Z,67.00
2018-01-24T10:56:49.996Z,67.00
2018-01-24T10:57:51.102Z,67.10
2018-01-24T10:58:52.234Z,67.30
2018-01-24T10:59:53.382Z,66.80
2018-01-24T11:00:54.463Z,66.80
2018-01-24T11:01:55.554Z,66.50
2018-01-24T11:02:56.610Z,66.50
2018-01-24T11:03:57.727Z,66.50
2018-01-24T11:04:58.827Z,66.60
2018-01-24T11:06:00.635Z,66.90
2018-01-24T11:07:01.729Z,66.90
2018-01-24T11:08:02.822Z,66.40
2018-01-24T11:09:03.912Z,66.60
2018-01-24T11:10:04.976Z,66.60
2018-01-24T11:11:06.048Z,66.30
2018-01-24T11:12:07.127Z,66.60
2018-01-24T11:13:08.245Z,66.00
2018-01-24T11:14:09.336Z,66.00
2018-01-24T11:15:10.398Z,66.10
2018-01-24T11:16:12.217Z,66.70
2018-01-24T11:17:13.303Z,66.10
2018-01-24T11:18:15.127Z,66.60
2018-01-24T11:19:16.232Z,66.50
2018-01-24T11:20:17.415Z,66.30
2018-01-24T11:21:18.463Z,66.10
2018-01-24T11:22:19.648Z,66.00
2018-01-24T11:23:20.741Z,66.10
2018-01-24T11:24:22.112Z,66.10
2018-01-24T11:25:23.331Z,65.80
2018-01-24T11:26:24.474Z,66.00
2018-01-24T11:27:25.581Z,65.80
2018-01-24T11:28:27.754Z,65.80
2018-01-24T11:29:28.912Z,65.70
2018-01-24T11:30:30.103Z,65.60
2018-01-24T11:31:31.183Z,65.40
2018-01-24T11:32:32.237Z,65.20
2018-01-24T11:33:33.370Z,65.40
2018-01-24T11:34:34.562Z,65.60
2018-01-24T11:35:35.638Z,65.30
2018-01-24T11:36:36.697Z,65.40
2018-01-24T11:37:37.768Z,65.40
2018-01-24T11:38:38.916Z,64.70
2018-01-24T11:39:40.065Z,64.80
2018-01-24T11:40:41.883Z,64.80
2018-01-24T11:41:42.950Z,64.70
2018-01-24T11:42:44.046Z,64.50
2018-01-24T11:43:45.136Z,64.50
2018-01-24T11:44:46.226Z,64.10
2018-01-24T11:45:47.307Z,64.30
2018-01-24T11:46:48.387Z,64.40
2018-01-24T11:47:49.452Z,64.30
2018-01-24T11:48:50.528Z,64.50
2018-01-24T11:49:51.623Z,64.50
2018-01-24T11:50:52.710Z,64.60
2018-01-24T11:51:53.775Z,64.60
2018-01-24T11:52:54.855Z,64.60
2018-01-24T11:53:55.932Z,64.40
2018-01-24T11:54:57.030Z,64.00
2018-01-24T11:55:58.225Z,64.30
2018-01-24T11:57:00.066Z,64.40
2018-01-24T11:58:01.164Z,64.40
2018-01-24T11:59:02.239Z,64.50
2018-01-24T12:00:03.334Z,64.50
2018-01-24T12:01:04.467Z,64.70
2018-01-24T12:02:05.552Z,64.00
2018-01-24T12:03:06.618Z,64.10
2018-01-24T12:04:07.697Z,64.10
2018-01-24T12:05:08.803Z,64.20
2018-01-24T12:06:09.892Z,63.80
2018-01-24T12:07:11.025Z,64.00
2018-01-24T12:08:12.119Z,64.10
2018-01-24T12:09:13.287Z,63.70
2018-01-24T12:10:14.411Z,63.90
2018-01-24T12:11:15.499Z,63.60
2018-01-24T12:12:16.575Z,63.50
2018-01-24T12:13:17.667Z,63.70
2018-01-24T12:14:18.831Z,63.60
2018-01-24T12:15:19.981Z,64.00
2018-01-24T12:16:21.791Z,63.60
2018-01-24T12:17:22.865Z,63.60
2018-01-24T12:18:23.951Z,63.80
2018-01-24T12:19:26.078Z,63.60
2018-01-24T12:20:27.199Z,63.40
2018-01-24T12:21:28.281Z,63.20
2018-01-24T12:22:29.371Z,63.70
2018-01-24T12:23:30.446Z,63.80
2018-01-24T12:24:33.152Z,63.90
2018-01-24T12:25:34.275Z,63.90
2018-01-24T12:26:35.463Z,64.00
2018-01-24T12:27:36.520Z,63.70
2018-01-24T12:28:37.672Z,63.80
2018-01-24T12:29:39.750Z,64.10
2018-01-24T12:30:40.839Z,64.00
2018-01-24T12:31:41.944Z,64.10
2018-01-24T12:32:43.027Z,63.70
2018-01-24T12:33:44.121Z,63.60
2018-01-24T12:34:45.217Z,63.60
2018-01-24T12:35:46.323Z,63.70
2018-01-24T12:36:47.430Z,63.70
2018-01-24T12:37:49.283Z,63.50
2018-01-24T12:38:50.379Z,63.40
2018-01-24T12:39:51.513Z,63.20
2018-01-24T12:40:52.576Z,63.40
2018-01-24T12:41:53.649Z,63.60
2018-01-24T12:42:54.828Z,63.30
2018-01-24T12:43:55.911Z,63.20
2018-01-24T12:44:57.091Z,63.20
2018-01-24T12:45:58.252Z,63.20
2018-01-24T12:46:59.351Z,63.00
2018-01-24T12:48:00.424Z,62.90
2018-01-24T12:49:02.007Z,62.90
2018-01-24T12:50:03.150Z,63.00
2018-01-24T12:51:04.231Z,63.10
2018-01-24T12:52:05.333Z,63.10
2018-01-24T12:53:06.407Z,63.00
2018-01-24T12:54:07.549Z,62.50
2018-01-24T12:55:08.624Z,62.50
2018-01-24T12:56:09.697Z,62.50
2018-01-24T12:57:11.611Z,63.00
2018-01-24T12:58:12.680Z,63.00
2018-01-24T12:59:14.552Z,62.80
2018-01-24T13:00:15.639Z,63.50
2018-01-24T13:01:16.748Z,62.90
2018-01-24T13:02:17.880Z,62.70
2018-01-24T13:03:18.979Z,62.10
2018-01-24T13:04:20.067Z,62.50
2018-01-24T13:05:21.158Z,63.20
2018-01-24T13:06:22.265Z,62.60
2018-01-24T13:07:23.326Z,62.90
2018-01-24T13:08:24.403Z,62.50
2018-01-24T13:09:25.478Z,62.40
2018-01-24T13:10:26.587Z,62.50
2018-01-24T13:11:27.684Z,61.90
2018-01-24T13:12:28.823Z,61.90
2018-01-24T13:13:29.913Z,61.70
2018-01-24T13:14:31.019Z,62.00
2018-01-24T13:15:32.856Z,62.10
2018-01-24T13:16:33.944Z,62.20
2018-01-24T13:17:35.089Z,62.00
2018-01-24T13:18:36.186Z,61.90